Time;durP1;ratioP1;P1;durP2;ratioP2;P2;SDS_P1;SDS_P2;PMS_P1;PMS_P2;Temp;Humidity;BMP_temperature;BMP_pressure;BME280_temperature;BME280_humidity;BME280_pressure;Samples;Min_cycle;Max_cycle;Signal;HPM_P1;HPM_P2
2021/11/26 00:01:39;;;;;;;12.63;4.47;;;3.70;97.90;;;;;;4994582;28;20027;-76
2021/11/26 00:04:07;;;;;;;12.87;4.57;;;3.70;97.90;;;;;;4993435;28;20035;-75
2021/11/26 00:06:33;;;;;;;14.60;4.23;;;3.70;97.90;;;;;;4993465;28;20034;-74
2021/11/26 00:09:00;;;;;;;10.00;4.07;;;3.80;97.90;;;;;;4993260;28;20034;-75
2021/11/26 00:11:26;;;;;;;18.27;5.80;;;3.80;97.90;;;;;;5008852;28;20041;-75
2021/11/26 00:14:03;;;;;;;12.90;4.53;;;3.80;97.80;;;;;;4993453;28;20026;-75
2021/11/26 00:16:34;;;;;;;14.60;4.50;;;3.70;97.80;;;;;;4976027;28;20033;-75
2021/11/26 00:19:04;;;;;;;13.57;4.43;;;3.70;97.90;;;;;;5008909;28;20026;-75
2021/11/26 00:21:30;;;;;;;15.57;4.60;;;3.80;98.00;;;;;;4993151;28;20084;-75
2021/11/26 00:23:55;;;;;;;15.87;4.50;;;3.80;98.00;;;;;;4993202;28;20058;-75
2021/11/26 00:26:21;;;;;;;12.03;3.90;;;3.90;98.00;;;;;;4993793;28;20037;-76
2021/11/26 00:28:47;;;;;;;12.33;4.63;;;3.90;98.00;;;;;;4994809;28;20034;-76
2021/11/26 00:31:12;;;;;;;17.63;4.80;;;3.90;98.00;;;;;;5009483;28;20740;-76
2021/11/26 00:33:38;;;;;;;11.60;4.47;;;3.90;98.00;;;;;;5007439;28;20091;-76
2021/11/26 00:36:04;;;;;;;9.30;3.90;;;4.00;98.00;;;;;;4993067;28;20022;-76
2021/11/26 00:38:30;;;;;;;11.93;4.50;;;4.00;98.00;;;;;;4993016;28;20069;-76
2021/11/26 00:40:55;;;;;;;13.90;4.60;;;4.00;98.00;;;;;;4992975;28;20041;-76
2021/11/26 00:43:21;;;;;;;11.57;4.03;;;4.00;98.00;;;;;;5009407;28;20057;-76
2021/11/26 00:45:46;;;;;;;11.57;4.27;;;4.10;98.00;;;;;;4994176;28;20031;-76
2021/11/26 00:48:12;;;;;;;16.67;4.40;;;4.00;98.00;;;;;;4992778;28;20031;-75
2021/11/26 00:50:38;;;;;;;18.13;4.40;;;4.10;98.00;;;;;;4994121;28;20037;-75
2021/11/26 00:53:05;;;;;;;14.33;5.17;;;4.00;97.90;;;;;;4994557;28;20109;-76
2021/11/26 00:55:31;;;;;;;11.63;4.20;;;4.10;97.90;;;;;;5009471;28;20115;-75
2021/11/26 00:57:56;;;;;;;12.27;4.30;;;4.00;97.90;;;;;;4994033;28;20041;-75
2021/11/26 01:00:22;;;;;;;9.93;3.93;;;4.10;98.00;;;;;;4992637;28;20046;-75
2021/11/26 01:02:48;;;;;;;14.20;3.57;;;4.10;98.00;;;;;;4992797;28;20479;-75
2021/11/26 01:05:15;;;;;;;15.60;3.80;;;4.10;98.00;;;;;;4992400;28;20033;-75
2021/11/26 01:07:41;;;;;;;16.67;4.67;;;4.10;98.00;;;;;;4992789;28;20049;-75
2021/11/26 01:10:09;;;;;;;14.63;4.17;;;4.10;98.10;;;;;;4992985;28;20026;-75
2021/11/26 01:12:35;;;;;;;7.30;3.20;;;4.10;98.10;;;;;;5009210;28;20114;-75
2021/11/26 01:15:03;;;;;;;14.67;3.90;;;4.20;98.10;;;;;;5008406;28;20102;-75
2021/11/26 01:17:29;;;;;;;9.30;3.27;;;4.20;98.40;;;;;;4992447;28;20131;-75
2021/11/26 01:19:54;;;;;;;10.93;3.73;;;4.20;98.10;;;;;;5009067;28;20478;-76
2021/11/26 01:22:20;;;;;;;13.93;3.67;;;4.30;98.20;;;;;;5009016;28;20375;-76
2021/11/26 01:24:46;;;;;;;9.70;3.53;;;4.30;98.10;;;;;;4982374;28;20206;-76
2021/11/26 01:27:12;;;;;;;9.37;3.53;;;4.30;98.20;;;;;;4960702;28;20031;-76
2021/11/26 01:29:37;;;;;;;11.43;3.50;;;4.40;98.20;;;;;;4976591;28;20034;-76
2021/11/26 01:32:04;;;;;;;13.83;3.47;;;4.50;98.30;;;;;;4976772;28;20031;-76
2021/11/26 01:34:30;;;;;;;9.70;3.57;;;4.40;98.30;;;;;;4976617;28;20023;-75
2021/11/26 01:36:57;;;;;;;12.07;2.90;;;4.40;98.30;;;;;;4976657;28;20019;-75
2021/11/26 01:39:22;;;;;;;8.37;2.70;;;4.40;98.20;;;;;;4982470;28;20038;-75
2021/11/26 01:41:51;;;;;;;8.93;2.77;;;4.50;98.30;;;;;;4992346;28;20549;-75
2021/11/26 01:44:17;;;;;;;11.83;3.17;;;4.50;98.30;;;;;;4976415;28;20070;-75
2021/11/26 01:46:43;;;;;;;11.13;3.13;;;4.50;98.40;;;;;;4976709;28;20067;-75
2021/11/26 01:49:10;;;;;;;6.17;2.87;;;4.50;98.20;;;;;;4977827;28;20042;-76
2021/11/26 01:51:36;;;;;;;7.77;2.40;;;4.50;98.20;;;;;;4961403;28;20030;-74
2021/11/26 01:54:03;;;;;;;9.30;2.60;;;4.50;98.20;;;;;;4978202;28;20109;-75
2021/11/26 01:56:29;;;;;;;7.07;2.10;;;4.50;98.20;;;;;;4978243;28;20019;-75
2021/11/26 01:58:55;;;;;;;7.37;2.20;;;4.50;98.20;;;;;;4980578;28;20073;-75
2021/11/26 02:01:21;;;;;;;7.03;2.20;;;4.60;98.20;;;;;;4989958;28;20049;-75
2021/11/26 02:03:47;;;;;;;3.63;1.30;;;4.60;98.30;;;;;;4978365;28;20356;-75
2021/11/26 02:06:13;;;;;;;7.33;1.30;;;4.60;98.20;;;;;;4978644;28;20030;-75
2021/11/26 02:08:38;;;;;;;5.07;1.20;;;4.60;98.20;;;;;;4977173;28;20117;-75
2021/11/26 02:11:04;;;;;;;3.43;1.10;;;4.70;98.20;;;;;;4960939;28;20479;-76
2021/11/26 02:13:30;;;;;;;5.10;0.90;;;4.70;98.20;;;;;;4976580;28;20023;-76
2021/11/26 02:15:59;;;;;;;4.03;1.20;;;4.70;98.20;;;;;;4980268;28;20026;-75
2021/11/26 02:18:25;;;;;;;6.20;0.90;;;4.70;98.20;;;;;;4995816;28;20022;-77
2021/11/26 02:20:51;;;;;;;7.37;0.90;;;4.70;98.20;;;;;;4996830;28;20037;-76
2021/11/26 02:23:17;;;;;;;5.23;0.87;;;4.80;98.20;;;;;;4996869;28;20061;-76
2021/11/26 02:25:44;;;;;;;3.67;0.73;;;4.80;98.20;;;;;;4996965;28;20030;-76
2021/11/26 02:28:12;;;;;;;4.43;0.60;;;4.80;98.20;;;;;;4978564;28;20034;-75
2021/11/26 02:30:38;;;;;;;2.60;0.60;;;4.70;98.20;;;;;;4977594;28;20038;-75
2021/11/26 02:33:10;;;;;;;7.57;0.70;;;4.80;98.30;;;;;;4977007;28;20030;-76
2021/11/26 02:35:38;;;;;;;4.30;0.80;;;4.90;98.40;;;;;;4975937;28;20168;-76
2021/11/26 02:38:05;;;;;;;4.80;0.70;;;4.90;98.40;;;;;;4976800;28;20030;-76
2021/11/26 02:40:33;;;;;;;4.13;0.70;;;4.90;98.40;;;;;;4976815;28;20037;-76
2021/11/26 02:42:59;;;;;;;3.57;0.90;;;4.90;98.30;;;;;;4976662;28;20109;-76
2021/11/26 02:45:26;;;;;;;3.80;0.60;;;5.00;98.30;;;;;;4976973;28;20033;-76
2021/11/26 02:47:53;;;;;;;3.17;1.00;;;4.90;98.30;;;;;;4975849;28;20026;-76
2021/11/26 02:50:19;;;;;;;5.93;1.67;;;5.00;98.40;;;;;;4976839;28;20073;-75
2021/11/26 02:52:45;;;;;;;7.80;1.53;;;5.00;98.40;;;;;;4975505;28;20019;-75
2021/11/26 02:55:15;;;;;;;8.70;2.47;;;5.00;98.50;;;;;;4975424;28;20114;-75
2021/11/26 02:57:41;;;;;;;12.37;2.67;;;5.00;98.50;;;;;;4975613;28;20027;-76
2021/11/26 03:00:08;;;;;;;9.70;2.63;;;5.00;98.50;;;;;;4976382;28;20433;-75
2021/11/26 03:02:34;;;;;;;7.80;2.87;;;5.10;98.50;;;;;;4976631;28;20034;-75
2021/11/26 03:05:00;;;;;;;8.97;3.33;;;5.10;98.50;;;;;;4975207;28;20034;-75
2021/11/26 03:07:25;;;;;;;7.87;2.93;;;5.00;98.40;;;;;;4976315;28;20034;-75
2021/11/26 03:09:51;;;;;;;7.97;2.80;;;5.10;98.40;;;;;;4976237;28;20038;-75
2021/11/26 03:12:17;;;;;;;7.83;3.27;;;5.10;98.40;;;;;;4978360;28;20088;-75
2021/11/26 03:14:42;;;;;;;7.47;3.63;;;5.10;98.40;;;;;;4992034;28;20089;-75
2021/11/26 03:17:08;;;;;;;8.40;4.10;;;5.10;98.40;;;;;;4995319;28;20030;-75
2021/11/26 03:19:34;;;;;;;10.87;4.10;;;5.10;98.40;;;;;;4994041;28;20045;-74
2021/11/26 03:21:59;;;;;;;9.80;4.57;;;5.10;98.40;;;;;;4995148;28;20471;-74
2021/11/26 03:24:25;;;;;;;8.00;3.77;;;5.20;98.50;;;;;;4986289;28;20038;-75
2021/11/26 03:26:51;;;;;;;9.30;4.03;;;5.10;98.40;;;;;;4974574;28;20054;-74
2021/11/26 03:29:16;;;;;;;10.73;5.00;;;5.10;98.50;;;;;;4974355;28;20038;-74
2021/11/26 03:31:42;;;;;;;8.10;3.80;;;5.10;98.40;;;;;;4975804;28;20194;-74
2021/11/26 03:34:08;;;;;;;9.70;3.73;;;5.10;98.40;;;;;;4974391;28;20031;-74
2021/11/26 03:36:34;;;;;;;7.70;4.03;;;5.10;98.40;;;;;;4974338;28;20054;-74
2021/11/26 03:38:59;;;;;;;9.73;4.47;;;5.10;98.40;;;;;;4974404;28;20069;-74
2021/11/26 03:41:25;;;;;;;7.97;3.80;;;5.10;98.40;;;;;;4976480;28;20142;-74
2021/11/26 03:43:51;;;;;;;8.90;4.20;;;5.10;98.40;;;;;;4975417;28;20093;-74
2021/11/26 03:46:18;;;;;;;12.70;4.43;;;5.10;98.40;;;;;;4974186;28;20043;-74
2021/11/26 03:48:44;;;;;;;9.80;4.40;;;5.10;98.40;;;;;;4975284;28;20431;-74
2021/11/26 03:51:10;;;;;;;9.03;4.57;;;5.10;98.50;;;;;;4957909;28;20042;-74
2021/11/26 03:53:35;;;;;;;7.97;3.73;;;5.10;98.50;;;;;;4974047;28;20387;-74
2021/11/26 03:56:01;;;;;;;7.03;3.90;;;5.20;98.50;;;;;;4975142;28;20030;-74
2021/11/26 03:58:27;;;;;;;7.70;4.00;;;5.10;98.40;;;;;;4975238;28;20037;-74
2021/11/26 04:00:52;;;;;;;10.13;3.60;;;5.20;98.50;;;;;;4975969;28;20521;-75
2021/11/26 04:03:18;;;;;;;7.13;3.70;;;5.10;98.50;;;;;;4993707;28;20033;-75
2021/11/26 04:05:44;;;;;;;11.07;4.20;;;5.30;98.60;;;;;;4994191;28;20073;-74
2021/11/26 04:08:09;;;;;;;8.00;3.50;;;5.20;98.60;;;;;;4994518;28;20042;-74
2021/11/26 04:10:36;;;;;;;6.97;3.33;;;5.10;98.50;;;;;;4994804;28;20034;-74
2021/11/26 04:13:03;;;;;;;7.03;2.83;;;5.20;98.50;;;;;;4995036;28;20057;-74
2021/11/26 04:15:33;;;;;;;8.23;2.60;;;5.20;98.60;;;;;;4992751;28;20382;-74
2021/11/26 04:18:01;;;;;;;10.77;2.70;;;5.20;98.60;;;;;;4973806;28;20410;-74
2021/11/26 04:20:27;;;;;;;4.57;1.53;;;5.20;98.60;;;;;;4975053;28;20117;-75
2021/11/26 04:22:54;;;;;;;9.50;2.63;;;5.20;98.60;;;;;;4974581;28;20096;-76
2021/11/26 04:25:20;;;;;;;4.60;1.87;;;5.30;98.60;;;;;;4986509;28;20089;-76
2021/11/26 04:27:46;;;;;;;6.30;1.87;;;5.20;98.60;;;;;;4993309;28;20023;-76
2021/11/26 04:30:14;;;;;;;7.67;1.90;;;5.30;98.60;;;;;;4993407;28;20030;-76
2021/11/26 04:32:40;;;;;;;8.50;1.80;;;5.30;98.60;;;;;;4993056;28;20022;-76
2021/11/26 04:35:07;;;;;;;5.53;1.63;;;5.30;98.60;;;;;;4992464;28;20030;-76
2021/11/26 04:37:33;;;;;;;6.67;1.43;;;5.30;98.60;;;;;;4994577;28;20026;-75
2021/11/26 04:39:59;;;;;;;7.37;1.10;;;5.30;98.60;;;;;;5009553;28;20048;-75
2021/11/26 04:42:25;;;;;;;3.33;1.03;;;5.30;98.60;;;;;;4994129;28;20473;-75
2021/11/26 04:44:50;;;;;;;4.30;0.90;;;5.30;98.50;;;;;;4994485;28;20034;-75
2021/11/26 04:47:16;;;;;;;4.93;0.90;;;5.40;98.60;;;;;;4993023;28;20383;-75
2021/11/26 04:49:42;;;;;;;6.93;0.90;;;5.30;98.50;;;;;;4994280;28;20105;-75
2021/11/26 04:52:07;;;;;;;4.77;1.30;;;5.40;98.50;;;;;;4992636;28;20414;-75
2021/11/26 04:54:33;;;;;;;5.03;0.83;;;5.40;98.50;;;;;;4993980;28;20039;-75
2021/11/26 04:56:58;;;;;;;2.57;0.93;;;5.40;98.50;;;;;;4995016;28;20495;-75
2021/11/26 04:59:24;;;;;;;8.17;1.10;;;5.50;98.50;;;;;;4998986;28;20490;-75
2021/11/26 05:01:50;;;;;;;8.93;1.03;;;5.40;98.40;;;;;;4999063;28;20402;-75
2021/11/26 05:04:16;;;;;;;3.20;0.67;;;5.30;98.40;;;;;;5000340;28;20201;-75
2021/11/26 05:06:42;;;;;;;6.03;0.90;;;5.40;98.40;;;;;;4998899;28;20073;-75
2021/11/26 05:09:09;;;;;;;4.20;1.00;;;5.40;98.30;;;;;;4998657;28;20032;-75
2021/11/26 05:11:35;;;;;;;5.23;0.90;;;5.40;98.30;;;;;;4999025;28;20022;-75
2021/11/26 05:14:03;;;;;;;3.00;0.70;;;5.40;98.30;;;;;;5000218;28;20023;-75
2021/11/26 05:16:30;;;;;;;6.10;0.73;;;5.40;98.30;;;;;;5000152;28;20026;-75
2021/11/26 05:18:55;;;;;;;4.50;0.80;;;5.40;98.20;;;;;;4998830;28;20026;-74
2021/11/26 05:21:22;;;;;;;4.33;0.70;;;5.40;98.20;;;;;;5000045;28;20033;-75
2021/11/26 05:23:48;;;;;;;3.00;0.50;;;5.30;98.10;;;;;;5000047;28;20054;-75
2021/11/26 05:26:14;;;;;;;3.90;0.70;;;5.30;98.10;;;;;;4997103;28;20034;-74
2021/11/26 05:28:39;;;;;;;4.73;0.70;;;5.30;98.10;;;;;;4980617;28;20058;-75
2021/11/26 05:31:05;;;;;;;3.20;0.70;;;5.30;98.10;;;;;;4963097;28;20030;-74
2021/11/26 05:33:31;;;;;;;3.03;0.63;;;5.20;98.10;;;;;;4980594;28;20038;-75
2021/11/26 05:35:57;;;;;;;3.17;0.40;;;5.30;98.10;;;;;;4979198;28;20030;-75
2021/11/26 05:38:23;;;;;;;3.70;0.40;;;5.30;98.10;;;;;;4979469;28;20027;-75
2021/11/26 05:40:49;;;;;;;3.33;0.60;;;5.30;98.10;;;;;;4980394;28;20033;-74
2021/11/26 05:43:16;;;;;;;5.23;0.60;;;5.30;98.10;;;;;;4992603;28;20034;-74
2021/11/26 05:45:42;;;;;;;3.47;0.70;;;5.30;98.00;;;;;;5015081;28;20083;-74
2021/11/26 05:48:08;;;;;;;2.63;0.80;;;5.30;98.00;;;;;;4998768;28;20479;-74
2021/11/26 05:50:34;;;;;;;4.50;0.80;;;5.30;98.00;;;;;;5014980;28;20467;-74
2021/11/26 05:53:00;;;;;;;3.20;0.70;;;5.30;98.00;;;;;;4998570;28;20113;-74
2021/11/26 05:55:27;;;;;;;3.83;0.70;;;5.20;98.20;;;;;;4999817;28;20023;-74
2021/11/26 05:57:54;;;;;;;3.97;1.50;;;5.30;98.20;;;;;;4999758;28;20023;-75
2021/11/26 06:00:21;;;;;;;3.97;0.70;;;5.20;98.00;;;;;;4987730;28;20491;-76
2021/11/26 06:02:48;;;;;;;3.50;0.80;;;5.30;98.00;;;;;;4980297;28;20062;-76
2021/11/26 06:05:14;;;;;;;3.80;0.80;;;5.20;97.90;;;;;;4979772;28;20039;-76
2021/11/26 06:07:40;;;;;;;4.10;0.80;;;5.20;97.90;;;;;;4985856;28;20038;-76
2021/11/26 06:10:10;;;;;;;4.23;1.00;;;5.30;98.00;;;;;;4995855;28;20027;-75
2021/11/26 06:12:40;;;;;;;3.33;0.90;;;5.20;97.90;;;;;;4989492;28;20018;-76
2021/11/26 06:15:06;;;;;;;6.67;1.53;;;5.20;97.90;;;;;;4976156;28;20446;-76
2021/11/26 06:17:32;;;;;;;4.67;1.43;;;5.20;98.00;;;;;;4988230;28;20035;-75
2021/11/26 06:19:58;;;;;;;6.17;1.80;;;5.20;98.00;;;;;;4994817;28;20471;-76
2021/11/26 06:22:24;;;;;;;7.90;2.00;;;5.20;98.00;;;;;;4994311;28;20402;-76
2021/11/26 06:24:49;;;;;;;5.13;2.03;;;5.10;98.00;;;;;;4996596;28;20038;-75
2021/11/26 06:27:15;;;;;;;5.80;1.80;;;5.00;98.00;;;;;;4986761;28;20031;-75
2021/11/26 06:29:41;;;;;;;9.60;2.60;;;5.00;98.10;;;;;;4970649;28;20042;-75
2021/11/26 06:32:07;;;;;;;8.17;1.83;;;5.00;98.20;;;;;;4972631;28;20086;-75
2021/11/26 06:34:32;;;;;;;6.60;2.20;;;5.00;98.30;;;;;;4977836;28;20034;-75
2021/11/26 06:36:58;;;;;;;6.10;2.00;;;5.00;98.40;;;;;;4975763;28;20030;-76
2021/11/26 06:39:23;;;;;;;11.10;2.63;;;5.00;98.40;;;;;;4969272;28;20030;-75
2021/11/26 06:41:50;;;;;;;9.70;2.13;;;5.00;98.40;;;;;;4993952;28;20040;-74
2021/11/26 06:44:16;;;;;;;10.57;2.93;;;5.00;98.40;;;;;;4994718;28;20023;-75
2021/11/26 06:46:41;;;;;;;9.77;2.50;;;5.00;98.50;;;;;;5002071;28;20029;-75
2021/11/26 06:49:07;;;;;;;8.97;2.67;;;5.00;98.50;;;;;;4994453;28;20061;-75
2021/11/26 06:51:33;;;;;;;11.50;3.73;;;5.00;98.70;;;;;;5010966;28;20038;-74
2021/11/26 06:53:59;;;;;;;11.43;2.50;;;5.00;98.70;;;;;;4987022;28;20035;-74
2021/11/26 06:56:26;;;;;;;8.43;2.60;;;5.10;98.80;;;;;;4992676;28;20030;-74
2021/11/26 06:58:54;;;;;;;15.33;3.20;;;4.90;98.70;;;;;;4989156;28;20168;-75
2021/11/26 07:01:21;;;;;;;11.30;2.67;;;5.00;98.80;;;;;;4994967;28;20054;-75
2021/11/26 07:03:46;;;;;;;8.03;2.90;;;5.10;98.80;;;;;;4994240;28;20030;-75
2021/11/26 07:06:12;;;;;;;12.67;2.83;;;5.10;98.80;;;;;;4994580;28;20019;-76
2021/11/26 07:08:38;;;;;;;9.80;3.00;;;5.10;98.80;;;;;;4995147;28;20046;-75
2021/11/26 07:11:03;;;;;;;10.40;2.50;;;5.00;98.80;;;;;;4992949;28;20246;-75
2021/11/26 07:13:29;;;;;;;9.27;3.43;;;5.00;98.80;;;;;;4992971;28;20034;-76
2021/11/26 07:15:55;;;;;;;13.77;3.50;;;5.00;98.90;;;;;;4976489;28;20372;-75
2021/11/26 07:18:21;;;;;;;12.97;4.30;;;5.00;98.90;;;;;;4994564;28;20038;-76
2021/11/26 07:20:46;;;;;;;10.93;3.53;;;5.00;98.90;;;;;;4994682;28;20038;-76
2021/11/26 07:23:12;;;;;;;12.07;3.87;;;4.90;98.90;;;;;;4994755;28;20057;-76
2021/11/26 07:25:38;;;;;;;8.80;3.20;;;5.00;98.90;;;;;;5009819;28;20030;-75
2021/11/26 07:28:04;;;;;;;18.80;4.20;;;5.00;98.90;;;;;;5009778;28;20061;-77
2021/11/26 07:30:30;;;;;;;16.60;4.47;;;5.00;98.80;;;;;;4994863;28;20515;-75
2021/11/26 07:32:55;;;;;;;12.17;3.83;;;5.00;98.90;;;;;;4994928;28;20029;-74
2021/11/26 07:35:21;;;;;;;10.07;4.43;;;5.00;98.80;;;;;;5010352;28;20026;-74
2021/11/26 07:37:47;;;;;;;12.70;4.93;;;5.00;98.80;;;;;;4995019;28;20470;-74
2021/11/26 07:40:15;;;;;;;10.93;5.53;;;5.00;98.80;;;;;;4993764;28;20550;-76
2021/11/26 07:42:41;;;;;;;15.73;5.47;;;5.00;98.80;;;;;;4993641;28;20387;-75
2021/11/26 07:45:08;;;;;;;12.47;5.57;;;5.00;98.90;;;;;;4993081;28;20041;-76
2021/11/26 07:47:33;;;;;;;18.33;6.33;;;5.00;98.80;;;;;;4994802;28;20110;-77
2021/11/26 07:49:59;;;;;;;11.93;6.27;;;5.00;98.80;;;;;;4992907;28;20125;-77
2021/11/26 07:52:25;;;;;;;18.13;6.53;;;4.90;98.70;;;;;;5009284;28;20027;-76
2021/11/26 07:54:50;;;;;;;15.57;6.77;;;5.00;98.70;;;;;;5008789;28;20038;-78
2021/11/26 07:57:16;;;;;;;20.77;6.43;;;5.00;98.70;;;;;;4993489;28;20030;-78
2021/11/26 07:59:42;;;;;;;20.20;6.80;;;5.00;98.70;;;;;;4993952;28;20502;-77
2021/11/26 08:02:07;;;;;;;23.30;6.60;;;5.00;98.60;;;;;;4994382;28;20056;-77
2021/11/26 08:04:33;;;;;;;19.37;7.23;;;5.00;98.60;;;;;;4993447;28;20031;-77
2021/11/26 08:06:59;;;;;;;25.53;7.77;;;5.10;98.60;;;;;;4994585;28;20090;-76
2021/11/26 08:09:25;;;;;;;21.73;7.53;;;5.00;98.50;;;;;;4994571;28;20035;-73
2021/11/26 08:11:51;;;;;;;18.43;6.07;;;5.10;98.50;;;;;;5009479;28;20026;-75
2021/11/26 08:14:19;;;;;;;21.87;6.20;;;5.10;98.40;;;;;;4994209;28;20435;-74
2021/11/26 08:16:46;;;;;;;21.33;6.30;;;5.10;98.30;;;;;;5009095;28;20065;-74
2021/11/26 08:19:12;;;;;;;20.53;5.80;;;5.10;98.20;;;;;;4992861;28;20461;-77
2021/11/26 08:21:40;;;;;;;24.03;7.10;;;5.10;98.40;;;;;;4992938;28;20068;-76
2021/11/26 08:24:07;;;;;;;21.13;6.70;;;5.20;98.10;;;;;;4994239;28;20483;-78
2021/11/26 08:26:33;;;;;;;22.23;6.70;;;5.20;98.10;;;;;;4992832;28;20030;-77
2021/11/26 08:29:01;;;;;;;17.53;6.20;;;5.20;97.90;;;;;;4993952;28;20034;-76
2021/11/26 08:31:27;;;;;;;17.20;5.87;;;5.30;97.90;;;;;;4976819;28;20403;-78
2021/11/26 08:33:53;;;;;;;19.93;5.87;;;5.30;97.60;;;;;;4992197;28;20071;-77
2021/11/26 08:36:19;;;;;;;28.47;6.03;;;5.30;97.30;;;;;;5008983;28;20482;-77
2021/11/26 08:38:44;;;;;;;18.80;5.50;;;5.30;97.20;;;;;;4992650;28;20030;-77
2021/11/26 08:41:10;;;;;;;16.97;5.53;;;5.30;97.10;;;;;;5008273;28;20065;-77
2021/11/26 08:43:36;;;;;;;29.27;7.00;;;5.20;96.90;;;;;;5008815;28;20030;-75
2021/11/26 08:46:02;;;;;;;25.53;5.57;;;5.30;96.80;;;;;;4993662;28;20041;-74
2021/11/26 08:48:27;;;;;;;20.57;5.80;;;5.40;96.70;;;;;;4992558;28;20030;-76
2021/11/26 08:50:53;;;;;;;20.93;5.43;;;5.40;96.60;;;;;;4993868;28;20474;-76
2021/11/26 08:53:20;;;;;;;23.50;6.57;;;5.40;96.60;;;;;;5009026;28;20080;-77
2021/11/26 08:55:50;;;;;;;26.33;5.27;;;5.40;96.30;;;;;;5008731;28;20538;-77
2021/11/26 08:58:16;;;;;;;22.33;5.63;;;5.40;96.40;;;;;;4992097;28;20027;-77
2021/11/26 09:00:43;;;;;;;18.43;5.10;;;5.40;96.30;;;;;;5008732;28;20483;-77
2021/11/26 09:03:09;;;;;;;18.77;5.43;;;5.40;96.20;;;;;;4992604;28;20056;-75
2021/11/26 09:05:36;;;;;;;27.13;6.10;;;5.40;95.90;;;;;;4992317;28;20031;-74
2021/11/26 09:08:02;;;;;;;22.17;6.53;;;5.40;95.90;;;;;;4992394;28;20057;-74
2021/11/26 09:10:32;;;;;;;21.53;6.03;;;5.40;96.00;;;;;;4992017;28;20041;-74
2021/11/26 09:12:58;;;;;;;26.73;7.10;;;5.50;96.10;;;;;;4992148;28;20356;-74
2021/11/26 09:15:24;;;;;;;24.57;6.27;;;5.50;95.70;;;;;;4991764;28;20023;-74
2021/11/26 09:17:51;;;;;;;19.37;5.97;;;5.50;95.60;;;;;;4991517;28;20605;-74
2021/11/26 09:20:17;;;;;;;20.73;5.97;;;5.50;95.60;;;;;;4993473;28;20038;-75
2021/11/26 09:22:43;;;;;;;18.90;5.13;;;5.50;95.90;;;;;;4992349;28;20030;-74
2021/11/26 09:25:10;;;;;;;25.40;6.17;;;5.60;95.70;;;;;;4993535;28;20030;-74
2021/11/26 09:27:36;;;;;;;25.37;6.37;;;5.60;95.60;;;;;;4992234;28;20022;-75
2021/11/26 09:30:03;;;;;;;22.40;5.90;;;5.50;95.30;;;;;;4993433;28;20077;-76
2021/11/26 09:32:28;;;;;;;21.23;5.70;;;5.50;95.20;;;;;;4992170;28;20030;-74
2021/11/26 09:34:54;;;;;;;19.70;5.40;;;5.50;95.10;;;;;;5007492;28;20122;-74
2021/11/26 09:37:20;;;;;;;26.17;6.40;;;5.50;95.00;;;;;;4993336;28;20085;-75
2021/11/26 09:39:45;;;;;;;27.23;6.90;;;5.50;95.30;;;;;;4992130;28;20030;-75
2021/11/26 09:42:11;;;;;;;19.83;5.73;;;5.60;94.90;;;;;;4993349;28;20514;-75
2021/11/26 09:44:40;;;;;;;17.10;4.77;;;5.60;94.90;;;;;;4995402;28;20474;-75
2021/11/26 09:47:06;;;;;;;20.67;5.67;;;5.60;94.90;;;;;;4995632;28;20029;-77
2021/11/26 09:49:32;;;;;;;16.40;4.67;;;5.60;94.80;;;;;;4995787;28;20044;-76
2021/11/26 09:51:59;;;;;;;17.97;5.13;;;5.60;94.60;;;;;;4996958;28;20546;-76
2021/11/26 09:54:25;;;;;;;23.13;5.70;;;5.70;94.60;;;;;;4979506;28;20031;-76
2021/11/26 09:56:51;;;;;;;20.93;5.43;;;5.80;94.60;;;;;;4995899;28;20026;-75
2021/11/26 09:59:17;;;;;;;16.10;4.80;;;5.80;94.50;;;;;;4996941;28;20041;-78
2021/11/26 10:01:42;;;;;;;19.10;4.33;;;5.90;94.60;;;;;;4996652;28;20046;-76
2021/11/26 10:04:21;;;;;;;11.33;3.10;;;6.10;94.50;;;;;;4996567;28;20110;-75
2021/11/26 10:06:48;;;;;;;13.07;3.40;;;6.20;94.30;;;;;;4996429;28;20041;-75
2021/11/26 10:09:21;;;;;;;13.30;3.37;;;6.40;94.10;;;;;;4995249;28;20030;-75
2021/11/26 10:11:50;;;;;;;13.18;3.42;;;6.70;93.80;;;;;;4994334;28;20620;-74
2021/11/26 10:14:25;;;;;;;14.80;3.83;;;6.80;93.60;;;;;;4995361;28;20386;-74
2021/11/26 10:17:03;;;;;;;12.20;3.60;;;7.10;93.30;;;;;;4996510;28;20037;-75
2021/11/26 10:19:51;;;;;;;13.00;3.50;;;7.40;93.00;;;;;;4994819;28;20110;-75
2021/11/26 10:22:24;;;;;;;12.27;3.87;;;7.70;92.40;;;;;;4994025;28;20523;-76
2021/11/26 10:25:15;;;;;;;13.02;3.65;;;8.10;91.80;;;;;;4976805;28;20050;-76
2021/11/26 10:27:57;;;;;;;16.03;3.10;;;8.50;91.10;;;;;;4975481;28;20030;-78
2021/11/26 10:30:38;;;;;;;10.37;2.30;;;8.80;88.10;;;;;;4976730;28;20391;-77
2021/11/26 10:33:05;;;;;;;10.30;3.00;;;8.90;89.10;;;;;;4984423;28;20472;-75
2021/11/26 10:35:36;;;;;;;15.13;2.90;;;8.90;86.80;;;;;;4993717;28;20383;-76
2021/11/26 10:38:10;;;;;;;11.20;2.73;;;8.90;84.20;;;;;;4994332;28;20023;-75
2021/11/26 10:40:39;;;;;;;9.37;2.73;;;8.80;83.00;;;;;;4992437;28;20034;-76
2021/11/26 10:43:13;;;;;;;16.30;4.00;;;8.70;83.50;;;;;;4994157;28;20483;-77
2021/11/26 10:51:35;;;;;;;14.87;3.77;;;7.90;81.70;;;;;;4994692;28;20386;-76
2021/11/26 10:59:34;;;;;;;10.68;2.92;;;7.30;83.30;;;;;;4995632;28;20037;-77
2021/11/26 11:02:00;;;;;;;14.30;4.00;;;7.20;84.00;;;;;;4994174;28;20046;-77
2021/11/26 11:04:28;;;;;;;10.33;3.10;;;7.10;84.40;;;;;;4994366;28;20037;-79
2021/11/26 11:07:09;;;;;;;12.83;3.33;;;6.90;85.20;;;;;;4977390;28;20066;-77
2021/11/26 11:09:44;;;;;;;15.10;3.30;;;6.90;85.40;;;;;;4993070;28;20034;-77
2021/11/26 11:12:11;;;;;;;10.37;2.73;;;6.80;85.50;;;;;;4994036;28;20410;-78
2021/11/26 11:14:38;;;;;;;12.03;2.87;;;6.80;85.70;;;;;;4995455;28;20041;-77
2021/11/26 11:17:04;;;;;;;12.47;3.33;;;6.70;85.50;;;;;;4995412;28;20030;-78
2021/11/26 11:19:30;;;;;;;15.83;3.93;;;6.70;85.80;;;;;;4995324;28;20038;-77
2021/11/26 11:21:58;;;;;;;11.70;2.97;;;6.70;86.10;;;;;;4994552;28;20034;-78
2021/11/26 11:24:26;;;;;;;13.20;2.60;;;6.70;86.00;;;;;;4995316;28;20101;-79
2021/11/26 11:26:53;;;;;;;13.83;3.03;;;6.80;86.80;;;;;;4994032;28;20041;-78
2021/11/26 11:29:23;;;;;;;8.67;2.83;;;6.90;86.50;;;;;;4993832;28;20034;-78
2021/11/26 11:31:51;;;;;;;10.03;2.87;;;7.10;86.70;;;;;;4994954;28;20106;-77
2021/11/26 11:34:21;;;;;;;13.03;3.33;;;7.30;86.20;;;;;;4993874;28;20081;-77
2021/11/26 11:36:50;;;;;;;14.33;3.17;;;7.40;86.10;;;;;;4993900;28;20077;-77
2021/11/26 11:39:16;;;;;;;18.93;4.03;;;7.40;85.30;;;;;;4994634;28;20121;-78
2021/11/26 11:41:56;;;;;;;9.13;2.90;;;7.30;84.70;;;;;;4993603;28;20453;-77
2021/11/26 11:44:27;;;;;;;10.63;3.30;;;7.30;84.90;;;;;;4994963;28;20037;-77
2021/11/26 11:46:53;;;;;;;12.33;3.27;;;7.30;84.70;;;;;;4993574;28;20069;-77
2021/11/26 11:49:31;;;;;;;11.83;3.07;;;7.20;85.40;;;;;;4993123;28;20036;-78
2021/11/26 11:52:01;;;;;;;14.30;3.60;;;7.20;85.40;;;;;;4994758;28;20035;-77
2021/11/26 11:54:43;;;;;;;15.73;3.50;;;7.30;85.20;;;;;;4994792;28;20514;-77
2021/11/26 11:57:23;;;;;;;12.30;3.00;;;7.30;84.70;;;;;;4993311;28;20014;-76
2021/11/26 11:59:50;;;;;;;17.27;3.60;;;7.40;84.60;;;;;;4994735;28;20038;-77
2021/11/26 12:02:25;;;;;;;12.50;3.50;;;7.30;84.00;;;;;;4993070;28;20526;-78
2021/11/26 12:04:54;;;;;;;15.37;3.33;;;7.40;84.20;;;;;;4993351;28;20031;-78
2021/11/26 12:07:26;;;;;;;12.47;3.13;;;7.20;83.80;;;;;;4993202;28;20121;-77
2021/11/26 12:10:06;;;;;;;15.97;3.07;;;7.10;84.40;;;;;;4994117;28;20026;-76
2021/11/26 12:12:43;;;;;;;15.63;3.57;;;7.00;85.30;;;;;;4993000;28;20368;-77
2021/11/26 12:15:08;;;;;;;16.37;3.63;;;6.90;85.80;;;;;;4994151;28;20022;-77
2021/11/26 12:17:38;;;;;;;12.37;2.70;;;6.80;86.70;;;;;;4991821;28;20532;-77
2021/11/26 12:20:25;;;;;;;12.53;2.97;;;6.70;87.30;;;;;;4992773;28;20026;-78
2021/11/26 12:22:54;;;;;;;14.17;3.13;;;6.70;88.00;;;;;;4994237;28;20026;-76
2021/11/26 12:25:58;;;;;;;14.87;3.43;;;6.60;88.60;;;;;;4994145;28;20068;-77
2021/11/26 12:28:26;;;;;;;11.90;3.43;;;6.50;89.20;;;;;;4994148;28;20022;-77
2021/11/26 12:31:02;;;;;;;13.07;4.03;;;6.30;90.10;;;;;;5009104;28;20076;-76
2021/11/26 12:33:29;;;;;;;10.43;2.63;;;6.30;90.40;;;;;;4994069;28;20085;-76
2021/11/26 12:35:59;;;;;;;11.97;2.80;;;6.10;90.80;;;;;;4992817;28;20054;-76
2021/11/26 12:38:39;;;;;;;12.40;3.10;;;6.10;91.20;;;;;;5008813;28;20109;-75
2021/11/26 12:41:05;;;;;;;12.07;3.90;;;6.00;91.50;;;;;;4994255;28;20077;-77
2021/11/26 12:43:46;;;;;;;15.80;3.70;;;6.00;92.00;;;;;;4993892;28;20034;-76
2021/11/26 12:46:22;;;;;;;11.90;4.27;;;5.90;92.20;;;;;;4994054;28;20096;-76
2021/11/26 12:49:09;;;;;;;15.10;4.43;;;5.80;92.50;;;;;;4992626;28;20081;-76
2021/11/26 12:51:40;;;;;;;14.33;5.13;;;5.80;92.90;;;;;;4994159;28;20030;-75
2021/11/26 12:54:06;;;;;;;14.07;4.97;;;5.70;93.40;;;;;;4993775;28;20157;-75
2021/11/26 12:56:46;;;;;;;11.93;4.60;;;5.60;93.70;;;;;;5008982;28;20438;-76
2021/11/26 12:59:11;;;;;;;11.70;4.60;;;5.50;94.10;;;;;;4992587;28;20027;-75
2021/11/26 13:01:47;;;;;;;12.23;4.87;;;5.50;94.40;;;;;;4993494;28;20104;-76
2021/11/26 13:04:13;;;;;;;12.93;4.70;;;5.40;94.70;;;;;;4993688;28;20463;-75